Terminal Aerodrome Forecast
Issued by NWS

Home | Current Version | Previous Version | Text Only | Print | Product List | Glossary On
Versions: 1 2 3 4 5 6 7 8 9 10 11 12 13 14 15
000
FTUS46 KHNX 221720
TAFMCE
TAF
KMCE 221720Z 2218/2318 15005KT P6SM OVC060
     FM222000 32010KT P6SM BKN050
     FM230100 32012G18KT 5SM -RA BR BKN030 OVC050
     FM230600 31005KT P6SM BKN250=

USA.gov is the U.S. government's official web portal to all federal, state and local government web resources and services.